Lapine, Louisiana
Current Conditions -  °F | °C
As of 10:53 PM on Friday 19 Dec 2014 (Local Time) from KMLU Reporting Station
Overcast Overcast  
Wind Chill: 42°   Ceiling: 800
Heat Index: 46°   Visibility: 7mi
Dew Point: 45°   Wind: 8mph
Humidity: 96%   Direction: 40°NE
Pressure: 30.21"   Gusts: NA
Location:  32.3932°N, 92.2204°W
Report Text: KMLU 200453Z AUTO 04007KT 7SM OVC008 08/07 A3021 RMK AO2 SLP230 T00780072
Loading
Personal Weather Stations






























Interactive Weather Map New forecast layout! Learn more

10-Day Weather Forecast

Advertisements
Track Severe Weather on mobile